Terminal Aerodrome Forecast
Issued by NWS Newport/Morehead City, NC

Home | Current Version | Previous Version | Graphics & Text | Print | Product List | Glossary On
Versions: 1 2 3 4 5 6 7 8 9 10 11 12 13 14 15 16 17 18 19 20 21 22 23 24 25 26
000
FTUS42 KMHX 020910 AAA
TAFEWN
TAF AMD
KEWN 020910Z 0209/0306 20005KT P6SM SCT007 BKN035
      TEMPO 0210/0212 BKN007
     FM021300 22009KT P6SM BKN040
     FM021900 20011G17KT P6SM VCTS BKN040CB
     FM030000 18008KT P6SM BKN040=

USA.gov is the U.S. government's official web portal to all federal, state and local government web resources and services.